sensor_id;sensor_type;location;lat;lon;timestamp;temperature;humidity
67974;DHT22;54756;51.140;6.952;2023-06-14T00:00:22;25.40;1.00
67974;DHT22;54756;51.140;6.952;2023-06-14T00:02:23;25.40;1.00
67974;DHT22;54756;51.140;6.952;2023-06-14T00:04:23;25.40;1.00
67974;DHT22;54756;51.140;6.952;2023-06-14T00:06:25;25.40;1.00
67974;DHT22;54756;51.140;6.952;2023-06-14T00:08:26;25.40;1.00
67974;DHT22;54756;51.140;6.952;2023-06-14T00:10:26;25.40;1.00
67974;DHT22;54756;51.140;6.952;2023-06-14T00:12:31;25.40;1.00
67974;DHT22;54756;51.140;6.952;2023-06-14T00:14:32;25.40;1.00
67974;DHT22;54756;51.140;6.952;2023-06-14T00:16:32;25.40;1.00
67974;DHT22;54756;51.140;6.952;2023-06-14T00:18:39;25.40;1.00
67974;DHT22;54756;51.140;6.952;2023-06-14T00:20:39;25.40;1.00
67974;DHT22;54756;51.140;6.952;2023-06-14T00:22:42;25.40;1.00
67974;DHT22;54756;51.140;6.952;2023-06-14T00:24:42;25.40;1.00
67974;DHT22;54756;51.140;6.952;2023-06-14T00:26:43;25.40;1.00
67974;DHT22;54756;51.140;6.952;2023-06-14T00:28:43;25.30;1.00
67974;DHT22;54756;51.140;6.952;2023-06-14T00:30:44;25.30;1.00
67974;DHT22;54756;51.140;6.952;2023-06-14T00:32:47;25.30;1.00
67974;DHT22;54756;51.140;6.952;2023-06-14T00:34:47;25.30;1.00
67974;DHT22;54756;51.140;6.952;2023-06-14T00:36:48;25.30;1.00
67974;DHT22;54756;51.140;6.952;2023-06-14T00:38:48;25.30;1.00
67974;DHT22;54756;51.140;6.952;2023-06-14T00:40:49;25.30;1.00
67974;DHT22;54756;51.140;6.952;2023-06-14T00:42:50;25.30;1.00
67974;DHT22;54756;51.140;6.952;2023-06-14T00:44:50;25.30;1.00
67974;DHT22;54756;51.140;6.952;2023-06-14T00:46:51;25.30;1.00
67974;DHT22;54756;51.140;6.952;2023-06-14T00:48:52;25.30;1.00
67974;DHT22;54756;51.140;6.952;2023-06-14T00:50:52;25.20;1.00
67974;DHT22;54756;51.140;6.952;2023-06-14T00:52:54;25.20;1.00
67974;DHT22;54756;51.140;6.952;2023-06-14T00:54:54;25.20;1.00
67974;DHT22;54756;51.140;6.952;2023-06-14T00:56:55;25.20;1.00
67974;DHT22;54756;51.140;6.952;2023-06-14T00:58:56;25.20;1.00
67974;DHT22;54756;51.140;6.952;2023-06-14T01:00:58;25.20;1.00
67974;DHT22;54756;51.140;6.952;2023-06-14T01:02:58;25.20;1.00
67974;DHT22;54756;51.140;6.952;2023-06-14T01:04:59;25.20;1.00
67974;DHT22;54756;51.140;6.952;2023-06-14T01:07:32;25.20;1.00
67974;DHT22;54756;51.140;6.952;2023-06-14T01:12:15;25.20;1.00
67974;DHT22;54756;51.140;6.952;2023-06-14T01:14:20;25.10;1.00
67974;DHT22;54756;51.140;6.952;2023-06-14T01:16:21;25.10;1.00
67974;DHT22;54756;51.140;6.952;2023-06-14T01:18:22;25.10;1.00
67974;DHT22;54756;51.140;6.952;2023-06-14T01:20:32;25.10;1.00
67974;DHT22;54756;51.140;6.952;2023-06-14T01:22:33;25.10;1.00
67974;DHT22;54756;51.140;6.952;2023-06-14T01:24:33;25.10;1.00
67974;DHT22;54756;51.140;6.952;2023-06-14T01:26:36;25.10;1.00
67974;DHT22;54756;51.140;6.952;2023-06-14T01:28:38;25.10;1.00
67974;DHT22;54756;51.140;6.952;2023-06-14T01:30:44;25.10;1.00
67974;DHT22;54756;51.140;6.952;2023-06-14T01:32:48;25.00;1.00
67974;DHT22;54756;51.140;6.952;2023-06-14T01:34:50;25.00;1.00
67974;DHT22;54756;51.140;6.952;2023-06-14T01:36:52;25.00;1.00
67974;DHT22;54756;51.140;6.952;2023-06-14T01:38:55;25.00;1.00
67974;DHT22;54756;51.140;6.952;2023-06-14T01:40:58;25.00;1.00
67974;DHT22;54756;51.140;6.952;2023-06-14T01:43:00;25.00;1.00
67974;DHT22;54756;51.140;6.952;2023-06-14T01:45:02;25.00;1.00
67974;DHT22;54756;51.140;6.952;2023-06-14T01:47:03;25.00;1.00
67974;DHT22;54756;51.140;6.952;2023-06-14T01:49:04;25.00;1.00
67974;DHT22;54756;51.140;6.952;2023-06-14T01:51:04;24.90;1.00
67974;DHT22;54756;51.140;6.952;2023-06-14T01:53:08;24.90;1.00
67974;DHT22;54756;51.140;6.952;2023-06-14T01:55:09;24.90;1.00
67974;DHT22;54756;51.140;6.952;2023-06-14T01:57:10;24.90;1.00
67974;DHT22;54756;51.140;6.952;2023-06-14T01:59:10;24.90;1.00
67974;DHT22;54756;51.140;6.952;2023-06-14T02:01:11;24.90;1.00
67974;DHT22;54756;51.140;6.952;2023-06-14T02:03:13;24.90;1.00
67974;DHT22;54756;51.140;6.952;2023-06-14T02:05:13;24.80;1.00
67974;DHT22;54756;51.140;6.952;2023-06-14T02:07:14;24.80;1.00
67974;DHT22;54756;51.140;6.952;2023-06-14T02:09:15;24.80;1.00
67974;DHT22;54756;51.140;6.952;2023-06-14T02:11:15;24.80;1.00
67974;DHT22;54756;51.140;6.952;2023-06-14T02:13:16;24.80;1.00
67974;DHT22;54756;51.140;6.952;2023-06-14T02:15:16;24.80;1.00
67974;DHT22;54756;51.140;6.952;2023-06-14T02:17:19;24.80;1.00
67974;DHT22;54756;51.140;6.952;2023-06-14T02:19:20;24.80;1.00
67974;DHT22;54756;51.140;6.952;2023-06-14T02:21:21;24.80;1.00
67974;DHT22;54756;51.140;6.952;2023-06-14T02:23:22;24.80;1.00
67974;DHT22;54756;51.140;6.952;2023-06-14T02:25:22;24.80;1.00
67974;DHT22;54756;51.140;6.952;2023-06-14T02:27:23;24.70;1.00
67974;DHT22;54756;51.140;6.952;2023-06-14T02:29:23;24.70;1.00
67974;DHT22;54756;51.140;6.952;2023-06-14T02:31:24;24.70;1.00
67974;DHT22;54756;51.140;6.952;2023-06-14T02:33:25;24.70;1.00
67974;DHT22;54756;51.140;6.952;2023-06-14T02:35:26;24.70;1.00
67974;DHT22;54756;51.140;6.952;2023-06-14T02:37:27;24.70;1.00
67974;DHT22;54756;51.140;6.952;2023-06-14T02:39:28;24.60;1.00
67974;DHT22;54756;51.140;6.952;2023-06-14T02:41:28;24.70;1.00
67974;DHT22;54756;51.140;6.952;2023-06-14T02:43:29;24.60;1.00
67974;DHT22;54756;51.140;6.952;2023-06-14T02:45:30;24.60;1.00
67974;DHT22;54756;51.140;6.952;2023-06-14T02:47:30;24.60;1.00
67974;DHT22;54756;51.140;6.952;2023-06-14T02:49:31;24.60;1.00
67974;DHT22;54756;51.140;6.952;2023-06-14T02:51:31;24.60;1.00
67974;DHT22;54756;51.140;6.952;2023-06-14T02:53:32;24.60;1.00
67974;DHT22;54756;51.140;6.952;2023-06-14T02:55:32;24.60;1.00
67974;DHT22;54756;51.140;6.952;2023-06-14T02:57:33;24.60;1.00
67974;DHT22;54756;51.140;6.952;2023-06-14T02:59:34;24.50;1.00
67974;DHT22;54756;51.140;6.952;2023-06-14T03:01:35;24.50;1.00
67974;DHT22;54756;51.140;6.952;2023-06-14T03:03:41;24.50;1.00
67974;DHT22;54756;51.140;6.952;2023-06-14T03:05:44;24.50;1.00
67974;DHT22;54756;51.140;6.952;2023-06-14T03:07:49;24.50;1.00
67974;DHT22;54756;51.140;6.952;2023-06-14T03:09:50;24.40;1.00
67974;DHT22;54756;51.140;6.952;2023-06-14T03:11:51;24.40;1.00
67974;DHT22;54756;51.140;6.952;2023-06-14T03:13:52;24.40;1.00
67974;DHT22;54756;51.140;6.952;2023-06-14T03:15:52;24.40;1.00
67974;DHT22;54756;51.140;6.952;2023-06-14T03:17:53;24.40;1.00
67974;DHT22;54756;51.140;6.952;2023-06-14T03:19:54;24.40;1.00
67974;DHT22;54756;51.140;6.952;2023-06-14T03:21:54;24.40;1.00
67974;DHT22;54756;51.140;6.952;2023-06-14T03:23:57;24.40;1.00
67974;DHT22;54756;51.140;6.952;2023-06-14T03:25:58;24.40;1.00
67974;DHT22;54756;51.140;6.952;2023-06-14T03:27:58;24.30;1.00
67974;DHT22;54756;51.140;6.952;2023-06-14T03:29:59;24.40;1.00
67974;DHT22;54756;51.140;6.952;2023-06-14T03:32:01;24.30;1.00
67974;DHT22;54756;51.140;6.952;2023-06-14T03:34:02;24.30;1.00
67974;DHT22;54756;51.140;6.952;2023-06-14T03:36:03;24.30;1.00
67974;DHT22;54756;51.140;6.952;2023-06-14T03:38:03;24.30;1.00
67974;DHT22;54756;51.140;6.952;2023-06-14T03:40:04;24.30;1.00
67974;DHT22;54756;51.140;6.952;2023-06-14T03:42:07;24.30;1.00
67974;DHT22;54756;51.140;6.952;2023-06-14T03:44:07;24.20;1.00
67974;DHT22;54756;51.140;6.952;2023-06-14T03:46:08;24.20;1.00
67974;DHT22;54756;51.140;6.952;2023-06-14T03:48:09;24.20;1.00
67974;DHT22;54756;51.140;6.952;2023-06-14T03:50:10;24.20;1.00
67974;DHT22;54756;51.140;6.952;2023-06-14T03:52:11;24.20;1.00
67974;DHT22;54756;51.140;6.952;2023-06-14T03:54:11;24.20;1.00
67974;DHT22;54756;51.140;6.952;2023-06-14T03:56:12;24.20;1.00
67974;DHT22;54756;51.140;6.952;2023-06-14T03:58:12;24.20;1.00
67974;DHT22;54756;51.140;6.952;2023-06-14T04:00:13;24.20;1.00
67974;DHT22;54756;51.140;6.952;2023-06-14T04:02:15;24.20;1.00
67974;DHT22;54756;51.140;6.952;2023-06-14T04:04:16;24.10;1.00
67974;DHT22;54756;51.140;6.952;2023-06-14T04:06:17;24.10;1.00
67974;DHT22;54756;51.140;6.952;2023-06-14T04:08:19;24.10;1.00
67974;DHT22;54756;51.140;6.952;2023-06-14T04:10:20;24.10;1.00
67974;DHT22;54756;51.140;6.952;2023-06-14T04:12:21;24.10;1.00
67974;DHT22;54756;51.140;6.952;2023-06-14T04:14:22;24.10;1.00
67974;DHT22;54756;51.140;6.952;2023-06-14T04:16:22;24.10;1.00
67974;DHT22;54756;51.140;6.952;2023-06-14T04:18:23;24.00;1.00
67974;DHT22;54756;51.140;6.952;2023-06-14T04:20:24;24.00;1.00
67974;DHT22;54756;51.140;6.952;2023-06-14T04:22:26;24.00;1.00
67974;DHT22;54756;51.140;6.952;2023-06-14T04:24:29;24.10;1.00
67974;DHT22;54756;51.140;6.952;2023-06-14T04:26:32;24.00;1.00
67974;DHT22;54756;51.140;6.952;2023-06-14T04:28:33;24.00;1.00
67974;DHT22;54756;51.140;6.952;2023-06-14T04:30:37;24.00;1.00
67974;DHT22;54756;51.140;6.952;2023-06-14T04:32:38;24.00;1.00
67974;DHT22;54756;51.140;6.952;2023-06-14T04:34:39;24.00;1.00
67974;DHT22;54756;51.140;6.952;2023-06-14T04:36:40;24.00;1.00
67974;DHT22;54756;51.140;6.952;2023-06-14T04:38:43;24.00;1.00
67974;DHT22;54756;51.140;6.952;2023-06-14T04:40:45;24.00;1.00
67974;DHT22;54756;51.140;6.952;2023-06-14T04:42:46;24.00;1.00
67974;DHT22;54756;51.140;6.952;2023-06-14T04:44:47;24.00;1.00
67974;DHT22;54756;51.140;6.952;2023-06-14T04:46:49;24.00;1.00
67974;DHT22;54756;51.140;6.952;2023-06-14T04:48:50;24.00;1.00
67974;DHT22;54756;51.140;6.952;2023-06-14T04:50:51;24.00;1.00
67974;DHT22;54756;51.140;6.952;2023-06-14T04:52:53;24.00;1.00
67974;DHT22;54756;51.140;6.952;2023-06-14T04:54:54;24.00;1.00
67974;DHT22;54756;51.140;6.952;2023-06-14T04:56:54;24.00;1.00
67974;DHT22;54756;51.140;6.952;2023-06-14T04:58:55;23.90;1.00
67974;DHT22;54756;51.140;6.952;2023-06-14T05:00:56;23.90;1.00
67974;DHT22;54756;51.140;6.952;2023-06-14T05:02:59;23.90;1.00
67974;DHT22;54756;51.140;6.952;2023-06-14T05:05:01;23.90;1.00
67974;DHT22;54756;51.140;6.952;2023-06-14T05:07:02;23.90;1.00
67974;DHT22;54756;51.140;6.952;2023-06-14T05:09:03;23.90;1.00
67974;DHT22;54756;51.140;6.952;2023-06-14T05:11:03;23.90;1.00
67974;DHT22;54756;51.140;6.952;2023-06-14T05:13:04;23.90;1.00
67974;DHT22;54756;51.140;6.952;2023-06-14T05:15:05;23.90;1.00
67974;DHT22;54756;51.140;6.952;2023-06-14T05:17:06;23.80;1.00
67974;DHT22;54756;51.140;6.952;2023-06-14T05:19:07;23.80;1.00
67974;DHT22;54756;51.140;6.952;2023-06-14T05:21:08;23.80;1.00
67974;DHT22;54756;51.140;6.952;2023-06-14T05:23:09;23.80;1.00
67974;DHT22;54756;51.140;6.952;2023-06-14T05:25:15;23.80;1.00
67974;DHT22;54756;51.140;6.952;2023-06-14T05:27:16;23.80;1.00
67974;DHT22;54756;51.140;6.952;2023-06-14T05:29:17;23.80;1.00
67974;DHT22;54756;51.140;6.952;2023-06-14T05:31:17;23.80;1.00
67974;DHT22;54756;51.140;6.952;2023-06-14T05:33:18;23.80;1.00
67974;DHT22;54756;51.140;6.952;2023-06-14T05:35:18;23.80;1.00
67974;DHT22;54756;51.140;6.952;2023-06-14T05:37:19;23.80;1.00
67974;DHT22;54756;51.140;6.952;2023-06-14T05:39:19;23.70;1.00
67974;DHT22;54756;51.140;6.952;2023-06-14T05:41:20;23.70;1.00
67974;DHT22;54756;51.140;6.952;2023-06-14T05:43:21;23.80;1.00
67974;DHT22;54756;51.140;6.952;2023-06-14T05:45:21;23.80;1.00
67974;DHT22;54756;51.140;6.952;2023-06-14T05:47:22;23.80;1.00
67974;DHT22;54756;51.140;6.952;2023-06-14T05:49:22;23.80;1.00
67974;DHT22;54756;51.140;6.952;2023-06-14T05:51:23;23.80;1.00
67974;DHT22;54756;51.140;6.952;2023-06-14T05:53:25;23.80;1.00
67974;DHT22;54756;51.140;6.952;2023-06-14T05:55:25;23.70;1.00
67974;DHT22;54756;51.140;6.952;2023-06-14T05:57:26;23.80;1.00
67974;DHT22;54756;51.140;6.952;2023-06-14T05:59:29;23.80;1.00
67974;DHT22;54756;51.140;6.952;2023-06-14T06:01:30;23.70;1.00
67974;DHT22;54756;51.140;6.952;2023-06-14T06:03:31;23.80;1.00
67974;DHT22;54756;51.140;6.952;2023-06-14T06:05:31;23.80;1.00
67974;DHT22;54756;51.140;6.952;2023-06-14T06:07:32;23.70;1.00
67974;DHT22;54756;51.140;6.952;2023-06-14T06:09:32;23.80;1.00
67974;DHT22;54756;51.140;6.952;2023-06-14T06:11:33;23.80;1.00
67974;DHT22;54756;51.140;6.952;2023-06-14T06:13:33;23.80;1.00
67974;DHT22;54756;51.140;6.952;2023-06-14T06:15:35;23.80;1.00
67974;DHT22;54756;51.140;6.952;2023-06-14T06:17:36;23.80;1.00
67974;DHT22;54756;51.140;6.952;2023-06-14T06:19:36;23.80;1.00
67974;DHT22;54756;51.140;6.952;2023-06-14T06:21:37;23.80;1.00
67974;DHT22;54756;51.140;6.952;2023-06-14T06:23:38;23.80;1.00
67974;DHT22;54756;51.140;6.952;2023-06-14T06:25:38;23.80;1.00
67974;DHT22;54756;51.140;6.952;2023-06-14T06:27:39;23.80;1.00
67974;DHT22;54756;51.140;6.952;2023-06-14T06:29:42;23.80;1.00
67974;DHT22;54756;51.140;6.952;2023-06-14T06:31:43;23.80;1.00
67974;DHT22;54756;51.140;6.952;2023-06-14T06:33:45;23.80;1.00
67974;DHT22;54756;51.140;6.952;2023-06-14T06:35:46;23.80;1.00
67974;DHT22;54756;51.140;6.952;2023-06-14T06:37:46;23.80;1.00
67974;DHT22;54756;51.140;6.952;2023-06-14T06:39:47;23.80;1.00
67974;DHT22;54756;51.140;6.952;2023-06-14T06:41:48;23.80;1.00
67974;DHT22;54756;51.140;6.952;2023-06-14T06:43:48;23.90;1.00
67974;DHT22;54756;51.140;6.952;2023-06-14T06:45:49;23.80;1.00
67974;DHT22;54756;51.140;6.952;2023-06-14T06:47:50;23.90;1.00
67974;DHT22;54756;51.140;6.952;2023-06-14T06:49:51;23.90;1.00
67974;DHT22;54756;51.140;6.952;2023-06-14T06:52:05;23.90;1.00
67974;DHT22;54756;51.140;6.952;2023-06-14T06:54:05;23.90;1.00
67974;DHT22;54756;51.140;6.952;2023-06-14T06:56:06;23.90;1.00
67974;DHT22;54756;51.140;6.952;2023-06-14T06:58:06;24.00;1.00
67974;DHT22;54756;51.140;6.952;2023-06-14T07:00:09;24.00;1.00
67974;DHT22;54756;51.140;6.952;2023-06-14T07:02:09;24.00;1.00
67974;DHT22;54756;51.140;6.952;2023-06-14T07:04:10;24.00;1.00
67974;DHT22;54756;51.140;6.952;2023-06-14T07:06:11;24.00;1.00
67974;DHT22;54756;51.140;6.952;2023-06-14T07:08:11;24.00;1.00
67974;DHT22;54756;51.140;6.952;2023-06-14T07:10:12;24.00;1.00
67974;DHT22;54756;51.140;6.952;2023-06-14T07:12:13;24.10;1.00
67974;DHT22;54756;51.140;6.952;2023-06-14T07:14:14;24.10;1.00
67974;DHT22;54756;51.140;6.952;2023-06-14T07:16:15;24.10;1.00
67974;DHT22;54756;51.140;6.952;2023-06-14T07:18:15;24.10;1.00
67974;DHT22;54756;51.140;6.952;2023-06-14T07:20:16;24.10;1.00
67974;DHT22;54756;51.140;6.952;2023-06-14T07:22:16;24.10;1.00
67974;DHT22;54756;51.140;6.952;2023-06-14T07:24:17;24.10;1.00
67974;DHT22;54756;51.140;6.952;2023-06-14T07:26:18;24.10;1.00
67974;DHT22;54756;51.140;6.952;2023-06-14T07:28:19;24.10;1.00
67974;DHT22;54756;51.140;6.952;2023-06-14T07:30:19;24.10;1.00
67974;DHT22;54756;51.140;6.952;2023-06-14T07:32:20;24.10;1.00
67974;DHT22;54756;51.140;6.952;2023-06-14T07:34:21;24.20;1.00
67974;DHT22;54756;51.140;6.952;2023-06-14T07:36:22;24.20;1.00
67974;DHT22;54756;51.140;6.952;2023-06-14T07:38:22;24.20;1.00
67974;DHT22;54756;51.140;6.952;2023-06-14T07:40:23;24.20;1.00
67974;DHT22;54756;51.140;6.952;2023-06-14T07:42:23;24.20;1.00
67974;DHT22;54756;51.140;6.952;2023-06-14T07:44:24;24.20;1.00
67974;DHT22;54756;51.140;6.952;2023-06-14T07:46:24;24.20;1.00
67974;DHT22;54756;51.140;6.952;2023-06-14T07:48:25;24.20;1.00
67974;DHT22;54756;51.140;6.952;2023-06-14T07:50:25;24.20;1.00
67974;DHT22;54756;51.140;6.952;2023-06-14T07:52:26;24.20;1.00
67974;DHT22;54756;51.140;6.952;2023-06-14T07:54:26;24.20;1.00
67974;DHT22;54756;51.140;6.952;2023-06-14T07:56:27;24.20;1.00
67974;DHT22;54756;51.140;6.952;2023-06-14T07:58:28;24.20;1.00
67974;DHT22;54756;51.140;6.952;2023-06-14T08:00:29;24.20;1.00
67974;DHT22;54756;51.140;6.952;2023-06-14T08:02:29;24.20;1.00
67974;DHT22;54756;51.140;6.952;2023-06-14T08:04:30;24.30;1.00
67974;DHT22;54756;51.140;6.952;2023-06-14T08:06:31;24.20;1.00
67974;DHT22;54756;51.140;6.952;2023-06-14T08:08:32;24.30;1.00
67974;DHT22;54756;51.140;6.952;2023-06-14T08:10:32;24.30;1.00
67974;DHT22;54756;51.140;6.952;2023-06-14T08:12:33;24.30;1.00
67974;DHT22;54756;51.140;6.952;2023-06-14T08:14:34;24.30;1.00
67974;DHT22;54756;51.140;6.952;2023-06-14T08:16:35;24.30;1.00
67974;DHT22;54756;51.140;6.952;2023-06-14T08:18:36;24.30;1.00
67974;DHT22;54756;51.140;6.952;2023-06-14T08:20:36;24.30;1.00
67974;DHT22;54756;51.140;6.952;2023-06-14T08:22:38;24.30;1.00
67974;DHT22;54756;51.140;6.952;2023-06-14T08:24:39;24.30;1.00
67974;DHT22;54756;51.140;6.952;2023-06-14T08:26:41;24.30;1.00
67974;DHT22;54756;51.140;6.952;2023-06-14T08:28:41;24.30;1.00
67974;DHT22;54756;51.140;6.952;2023-06-14T08:30:42;24.30;1.00
67974;DHT22;54756;51.140;6.952;2023-06-14T08:32:43;24.40;1.00
67974;DHT22;54756;51.140;6.952;2023-06-14T08:34:44;24.30;1.00
67974;DHT22;54756;51.140;6.952;2023-06-14T08:36:45;24.40;1.00
67974;DHT22;54756;51.140;6.952;2023-06-14T08:38:45;24.40;1.00
67974;DHT22;54756;51.140;6.952;2023-06-14T08:40:51;24.30;1.00
67974;DHT22;54756;51.140;6.952;2023-06-14T08:42:54;24.40;1.00
67974;DHT22;54756;51.140;6.952;2023-06-14T08:44:55;24.40;1.00
67974;DHT22;54756;51.140;6.952;2023-06-14T08:46:56;24.40;1.00
67974;DHT22;54756;51.140;6.952;2023-06-14T08:49:01;24.40;1.00
67974;DHT22;54756;51.140;6.952;2023-06-14T08:51:02;24.40;1.00
67974;DHT22;54756;51.140;6.952;2023-06-14T08:53:04;24.40;1.00
67974;DHT22;54756;51.140;6.952;2023-06-14T08:55:09;24.40;1.00
67974;DHT22;54756;51.140;6.952;2023-06-14T08:57:11;24.40;1.00
67974;DHT22;54756;51.140;6.952;2023-06-14T08:59:15;24.40;1.00
67974;DHT22;54756;51.140;6.952;2023-06-14T09:01:16;24.40;1.00
67974;DHT22;54756;51.140;6.952;2023-06-14T09:03:18;24.40;1.00
67974;DHT22;54756;51.140;6.952;2023-06-14T09:05:22;24.40;1.00
67974;DHT22;54756;51.140;6.952;2023-06-14T09:07:23;24.40;1.00
67974;DHT22;54756;51.140;6.952;2023-06-14T09:09:24;24.40;1.00
67974;DHT22;54756;51.140;6.952;2023-06-14T09:11:26;24.40;1.00
67974;DHT22;54756;51.140;6.952;2023-06-14T09:13:27;24.40;1.00
67974;DHT22;54756;51.140;6.952;2023-06-14T09:15:29;24.40;1.00
67974;DHT22;54756;51.140;6.952;2023-06-14T09:17:30;24.40;1.00
67974;DHT22;54756;51.140;6.952;2023-06-14T09:19:33;24.40;1.00
67974;DHT22;54756;51.140;6.952;2023-06-14T09:21:35;24.40;1.00
67974;DHT22;54756;51.140;6.952;2023-06-14T09:23:46;24.50;1.00
67974;DHT22;54756;51.140;6.952;2023-06-14T09:25:46;24.50;1.00
67974;DHT22;54756;51.140;6.952;2023-06-14T09:27:47;24.50;1.00
67974;DHT22;54756;51.140;6.952;2023-06-14T09:29:48;24.50;1.00
67974;DHT22;54756;51.140;6.952;2023-06-14T09:31:49;24.50;1.00
67974;DHT22;54756;51.140;6.952;2023-06-14T09:33:50;24.50;1.00
67974;DHT22;54756;51.140;6.952;2023-06-14T09:35:51;24.50;1.00
67974;DHT22;54756;51.140;6.952;2023-06-14T09:37:52;24.50;1.00
67974;DHT22;54756;51.140;6.952;2023-06-14T09:39:56;24.50;1.00
67974;DHT22;54756;51.140;6.952;2023-06-14T09:41:57;24.50;1.00
67974;DHT22;54756;51.140;6.952;2023-06-14T09:43:58;24.50;1.00
67974;DHT22;54756;51.140;6.952;2023-06-14T09:46:04;24.50;1.00
67974;DHT22;54756;51.140;6.952;2023-06-14T09:48:07;24.50;1.00
67974;DHT22;54756;51.140;6.952;2023-06-14T09:50:08;24.50;1.00
67974;DHT22;54756;51.140;6.952;2023-06-14T09:52:13;24.50;1.00
67974;DHT22;54756;51.140;6.952;2023-06-14T09:54:22;24.50;1.00
67974;DHT22;54756;51.140;6.952;2023-06-14T09:56:29;24.50;1.00
67974;DHT22;54756;51.140;6.952;2023-06-14T09:58:30;24.60;1.00
67974;DHT22;54756;51.140;6.952;2023-06-14T10:00:33;24.60;1.00
67974;DHT22;54756;51.140;6.952;2023-06-14T10:02:36;24.60;1.00
67974;DHT22;54756;51.140;6.952;2023-06-14T10:04:39;24.60;1.00
67974;DHT22;54756;51.140;6.952;2023-06-14T10:06:41;24.60;1.00
67974;DHT22;54756;51.140;6.952;2023-06-14T10:08:43;24.60;1.00
67974;DHT22;54756;51.140;6.952;2023-06-14T10:10:45;24.60;1.00
67974;DHT22;54756;51.140;6.952;2023-06-14T10:12:46;24.60;1.00
67974;DHT22;54756;51.140;6.952;2023-06-14T10:14:51;24.60;1.00
67974;DHT22;54756;51.140;6.952;2023-06-14T10:17:08;24.60;1.00
67974;DHT22;54756;51.140;6.952;2023-06-14T10:19:29;24.60;1.00
67974;DHT22;54756;51.140;6.952;2023-06-14T10:21:46;24.60;1.00
67974;DHT22;54756;51.140;6.952;2023-06-14T10:23:50;24.60;1.00
67974;DHT22;54756;51.140;6.952;2023-06-14T10:25:54;24.60;1.00
67974;DHT22;54756;51.140;6.952;2023-06-14T10:28:19;24.60;1.00
67974;DHT22;54756;51.140;6.952;2023-06-14T10:30:25;24.60;1.00
67974;DHT22;54756;51.140;6.952;2023-06-14T10:32:27;24.60;1.00
67974;DHT22;54756;51.140;6.952;2023-06-14T10:34:31;24.60;1.00
67974;DHT22;54756;51.140;6.952;2023-06-14T10:36:32;24.60;1.00
67974;DHT22;54756;51.140;6.952;2023-06-14T10:38:36;24.70;1.00
67974;DHT22;54756;51.140;6.952;2023-06-14T10:40:38;24.70;1.00
67974;DHT22;54756;51.140;6.952;2023-06-14T10:42:51;24.70;1.00
67974;DHT22;54756;51.140;6.952;2023-06-14T10:44:54;24.70;1.00
67974;DHT22;54756;51.140;6.952;2023-06-14T10:47:00;24.70;1.00
67974;DHT22;54756;51.140;6.952;2023-06-14T10:49:01;24.70;1.00
67974;DHT22;54756;51.140;6.952;2023-06-14T10:51:03;24.70;1.00
67974;DHT22;54756;51.140;6.952;2023-06-14T10:53:22;24.70;1.00
67974;DHT22;54756;51.140;6.952;2023-06-14T10:55:22;24.70;1.00
67974;DHT22;54756;51.140;6.952;2023-06-14T10:57:23;24.70;1.00
67974;DHT22;54756;51.140;6.952;2023-06-14T10:59:24;24.70;1.00
67974;DHT22;54756;51.140;6.952;2023-06-14T11:01:40;24.70;1.00
67974;DHT22;54756;51.140;6.952;2023-06-14T11:03:51;24.80;1.00
67974;DHT22;54756;51.140;6.952;2023-06-14T11:05:57;24.80;1.00
67974;DHT22;54756;51.140;6.952;2023-06-14T11:12:35;24.80;1.00
67974;DHT22;54756;51.140;6.952;2023-06-14T11:14:37;24.80;1.00
67974;DHT22;54756;51.140;6.952;2023-06-14T11:16:38;24.80;1.00
67974;DHT22;54756;51.140;6.952;2023-06-14T11:18:39;24.80;1.00
67974;DHT22;54756;51.140;6.952;2023-06-14T11:20:40;24.80;1.00
67974;DHT22;54756;51.140;6.952;2023-06-14T11:22:43;24.80;1.00
67974;DHT22;54756;51.140;6.952;2023-06-14T11:24:44;24.80;1.00
67974;DHT22;54756;51.140;6.952;2023-06-14T11:26:47;24.80;1.00
67974;DHT22;54756;51.140;6.952;2023-06-14T11:28:47;24.80;1.00
67974;DHT22;54756;51.140;6.952;2023-06-14T11:31:01;24.80;1.00
67974;DHT22;54756;51.140;6.952;2023-06-14T11:33:01;24.80;1.00
67974;DHT22;54756;51.140;6.952;2023-06-14T11:35:03;24.90;1.00
67974;DHT22;54756;51.140;6.952;2023-06-14T11:37:05;24.90;1.00
67974;DHT22;54756;51.140;6.952;2023-06-14T11:39:07;24.90;1.00
67974;DHT22;54756;51.140;6.952;2023-06-14T11:41:07;24.90;1.00
67974;DHT22;54756;51.140;6.952;2023-06-14T11:43:08;24.90;1.00
67974;DHT22;54756;51.140;6.952;2023-06-14T11:45:10;24.90;1.00
67974;DHT22;54756;51.140;6.952;2023-06-14T11:47:11;24.90;1.00
67974;DHT22;54756;51.140;6.952;2023-06-14T11:49:12;24.90;1.00
67974;DHT22;54756;51.140;6.952;2023-06-14T11:51:12;24.90;1.00
67974;DHT22;54756;51.140;6.952;2023-06-14T11:53:14;24.90;1.00
67974;DHT22;54756;51.140;6.952;2023-06-14T11:55:14;24.90;1.00
67974;DHT22;54756;51.140;6.952;2023-06-14T11:57:15;24.90;1.00
67974;DHT22;54756;51.140;6.952;2023-06-14T11:59:17;25.00;1.00
67974;DHT22;54756;51.140;6.952;2023-06-14T12:01:19;25.00;1.00
67974;DHT22;54756;51.140;6.952;2023-06-14T12:03:24;25.00;1.00
67974;DHT22;54756;51.140;6.952;2023-06-14T12:05:28;25.00;1.00
67974;DHT22;54756;51.140;6.952;2023-06-14T12:07:30;25.00;1.00
67974;DHT22;54756;51.140;6.952;2023-06-14T12:09:32;25.00;1.00
67974;DHT22;54756;51.140;6.952;2023-06-14T12:11:35;25.00;1.00
67974;DHT22;54756;51.140;6.952;2023-06-14T12:13:38;25.00;1.00
67974;DHT22;54756;51.140;6.952;2023-06-14T12:15:40;25.00;1.00
67974;DHT22;54756;51.140;6.952;2023-06-14T12:17:42;25.00;1.00
67974;DHT22;54756;51.140;6.952;2023-06-14T12:19:45;25.10;1.00
67974;DHT22;54756;51.140;6.952;2023-06-14T12:21:47;25.10;1.00
67974;DHT22;54756;51.140;6.952;2023-06-14T12:23:49;25.10;1.00
67974;DHT22;54756;51.140;6.952;2023-06-14T12:25:51;25.10;1.00
67974;DHT22;54756;51.140;6.952;2023-06-14T12:27:56;25.10;1.00
67974;DHT22;54756;51.140;6.952;2023-06-14T12:30:01;25.10;1.00
67974;DHT22;54756;51.140;6.952;2023-06-14T12:32:02;25.10;1.00
67974;DHT22;54756;51.140;6.952;2023-06-14T12:34:03;25.10;1.00
67974;DHT22;54756;51.140;6.952;2023-06-14T12:36:04;25.10;1.00
67974;DHT22;54756;51.140;6.952;2023-06-14T12:38:06;25.10;1.00
67974;DHT22;54756;51.140;6.952;2023-06-14T12:40:07;25.10;1.00
67974;DHT22;54756;51.140;6.952;2023-06-14T12:42:08;25.10;1.00
67974;DHT22;54756;51.140;6.952;2023-06-14T12:44:09;25.10;1.00
67974;DHT22;54756;51.140;6.952;2023-06-14T12:46:10;25.10;1.00
67974;DHT22;54756;51.140;6.952;2023-06-14T12:48:10;25.20;1.00
67974;DHT22;54756;51.140;6.952;2023-06-14T12:50:11;25.20;1.00
67974;DHT22;54756;51.140;6.952;2023-06-14T12:52:11;25.20;1.00
67974;DHT22;54756;51.140;6.952;2023-06-14T12:54:12;25.20;1.00
67974;DHT22;54756;51.140;6.952;2023-06-14T12:56:15;25.20;1.00
67974;DHT22;54756;51.140;6.952;2023-06-14T12:58:16;25.20;1.00
67974;DHT22;54756;51.140;6.952;2023-06-14T13:00:18;25.20;1.00
67974;DHT22;54756;51.140;6.952;2023-06-14T13:02:20;25.20;1.00
67974;DHT22;54756;51.140;6.952;2023-06-14T13:04:24;25.20;1.00
67974;DHT22;54756;51.140;6.952;2023-06-14T13:06:25;25.20;1.00
67974;DHT22;54756;51.140;6.952;2023-06-14T13:08:25;25.30;1.00